Time;durP1;ratioP1;P1;durP2;ratioP2;P2;SDS_P1;SDS_P2;PMS_P1;PMS_P2;Temp;Humidity;BMP_temperature;BMP_pressure;BME280_temperature;BME280_humidity;BME280_pressure;Samples;Min_cycle;Max_cycle;Signal;HPM_P1;HPM_P2
2022/06/11 00:01:29;;;;;;;;;;;;;;;17.21;75.39;102037.28;5050896;28;20299;-62
2022/06/11 00:03:57;;;;;;;;;;;;;;;17.17;75.63;102046.72;5061671;28;19932;-61
2022/06/11 00:06:23;;;;;;;;;;;;;;;17.14;75.38;102041.69;5061861;28;20104;-61
2022/06/11 00:08:48;;;;;;;;;;;;;;;17.13;75.52;102045.38;5061552;28;19959;-61
2022/06/11 00:11:14;;;;;;;;;;;;;;;17.10;75.39;102046.56;5060404;28;19997;-61
2022/06/11 00:13:41;;;;;;;;;;;;;;;17.08;75.47;102044.06;5055830;28;19925;-61
2022/06/11 00:16:06;;;;;;;;;;;;;;;17.05;75.97;102043.56;5060794;28;19924;-62
2022/06/11 00:18:33;;;;;;;;;;;;;;;16.99;75.76;102044.25;5062142;28;19955;-61
2022/06/11 00:20:59;;;;;;;;;;;;;;;17.00;75.73;102044.09;5065768;28;19924;-62
2022/06/11 00:23:24;;;;;;;;;;;;;;;16.96;75.62;102042.75;5060465;28;20389;-61
2022/06/11 00:25:49;;;;;;;;;;;;;;;16.98;75.92;102039.91;5061953;28;19978;-61
2022/06/11 00:28:15;;;;;;;;;;;;;;;16.90;75.79;102036.25;5057799;28;19927;-61
2022/06/11 00:30:40;;;;;;;;;;;;;;;16.91;75.77;102042.44;5050532;28;19928;-61
2022/06/11 00:33:06;;;;;;;;;;;;;;;16.88;75.66;102042.81;5061367;28;19947;-61
2022/06/11 00:35:32;;;;;;;;;;;;;;;16.86;75.88;102039.44;5060183;28;19928;-62
2022/06/11 00:37:57;;;;;;;;;;;;;;;16.85;75.94;102043.97;5061079;28;19924;-61
2022/06/11 00:40:24;;;;;;;;;;;;;;;16.83;76.10;102032.63;5059397;28;19931;-62
2022/06/11 00:42:49;;;;;;;;;;;;;;;16.80;75.86;102038.31;5043430;28;19928;-61
2022/06/11 00:45:17;;;;;;;;;;;;;;;16.81;76.25;102034.59;5045287;28;19924;-61
2022/06/11 00:47:45;;;;;;;;;;;;;;;16.80;76.15;102036.47;5061418;28;19970;-61
2022/06/11 00:50:17;;;;;;;;;;;;;;;16.74;76.03;102031.81;5063109;28;19970;-62
2022/06/11 00:52:43;;;;;;;;;;;;;;;16.70;76.51;102030.47;5042429;28;20529;-61
2022/06/11 00:55:12;;;;;;;;;;;;;;;16.67;76.28;102025.44;5059833;28;19928;-61
2022/06/11 00:57:43;;;;;;;;;;;;;;;16.65;76.16;102031.00;5058348;28;19935;-61
2022/06/11 01:00:15;;;;;;;;;;;;;;;16.63;76.65;102027.66;5059407;28;20011;-61
2022/06/11 01:02:40;;;;;;;;;;;;;;;16.59;76.39;102033.53;5060751;28;19935;-62
2022/06/11 01:05:06;;;;;;;;;;;;;;;16.55;77.02;102030.38;5062200;28;19925;-62
2022/06/11 01:07:42;;;;;;;;;;;;;;;16.52;76.43;102028.84;5063388;28;19975;-61
2022/06/11 01:10:26;;;;;;;;;;;;;;;16.50;76.64;102020.19;5064656;28;20003;-62
2022/06/11 01:12:51;;;;;;;;;;;;;;;16.50;76.56;102022.84;5054326;28;19927;-62
2022/06/11 01:15:23;;;;;;;;;;;;;;;16.48;76.92;102027.53;5054128;28;19924;-61
2022/06/11 01:18:01;;;;;;;;;;;;;;;16.44;77.49;102026.22;5035281;28;19920;-62
2022/06/11 01:20:41;;;;;;;;;;;;;;;16.37;77.73;102019.84;5052370;28;19974;-62
2022/06/11 01:23:19;;;;;;;;;;;;;;;16.31;77.17;102026.75;5061327;28;19994;-61
2022/06/11 01:25:53;;;;;;;;;;;;;;;16.31;77.20;102028.56;5059234;28;19928;-62
2022/06/11 01:28:27;;;;;;;;;;;;;;;16.31;77.05;102028.56;5060506;28;19924;-62
2022/06/11 01:31:02;;;;;;;;;;;;;;;16.31;77.26;102021.38;5048629;28;19976;-61
2022/06/11 01:33:36;;;;;;;;;;;;;;;16.33;77.44;102018.53;5056089;28;19925;-61
2022/06/11 01:36:10;;;;;;;;;;;;;;;16.31;77.04;102021.38;5062365;28;19972;-62
2022/06/11 01:38:38;;;;;;;;;;;;;;;16.29;77.51;102017.22;5051408;28;20015;-61
2022/06/11 01:41:18;;;;;;;;;;;;;;;16.28;77.32;102016.34;5046708;28;19925;-61
2022/06/11 01:43:45;;;;;;;;;;;;;;;16.26;77.11;102013.88;5063877;28;19947;-62
2022/06/11 01:46:17;;;;;;;;;;;;;;;16.25;77.46;102022.88;5067083;28;19931;-62
2022/06/11 01:49:03;;;;;;;;;;;;;;;16.25;77.10;102014.84;5064495;28;19967;-61
2022/06/11 01:51:31;;;;;;;;;;;;;;;16.23;77.87;102014.19;5059082;28;19924;-62
2022/06/11 01:54:08;;;;;;;;;;;;;;;16.20;77.03;102009.22;5062401;28;20750;-61
2022/06/11 01:57:00;;;;;;;;;;;;;;;16.18;78.00;102008.53;5066023;28;19921;-61
2022/06/11 01:59:36;;;;;;;;;;;;;;;16.15;77.87;102016.91;5036119;28;19928;-61
2022/06/11 02:02:17;;;;;;;;;;;;;;;16.11;77.97;102007.53;5056566;28;19929;-62
2022/06/11 02:05:06;;;;;;;;;;;;;;;16.08;77.52;102007.91;5062162;28;20409;-61
2022/06/11 02:07:42;;;;;;;;;;;;;;;16.06;77.96;102008.06;5054128;28;20113;-61
2022/06/11 02:10:28;;;;;;;;;;;;;;;16.08;77.29;102010.56;5064442;28;20015;-61
2022/06/11 02:12:59;;;;;;;;;;;;;;;16.06;78.47;102010.72;5067164;28;19931;-61
2022/06/11 02:15:31;;;;;;;;;;;;;;;16.04;77.63;102017.25;5062105;28;19932;-62
2022/06/11 02:17:59;;;;;;;;;;;;;;;16.00;77.54;102017.56;5061773;28;20012;-61
2022/06/11 02:20:28;;;;;;;;;;;;;;;15.98;77.92;102016.91;5062052;28;19951;-61
2022/06/11 02:22:58;;;;;;;;;;;;;;;15.95;78.54;102019.94;5057714;28;19924;-62
2022/06/11 02:25:26;;;;;;;;;;;;;;;15.90;78.51;102027.59;5062795;28;20449;-61
2022/06/11 02:27:54;;;;;;;;;;;;;;;15.89;78.39;102017.06;5064582;28;19931;-61
2022/06/11 02:30:22;;;;;;;;;;;;;;;15.84;78.21;102026.41;5061882;28;19935;-61
2022/06/11 02:32:47;;;;;;;;;;;;;;;15.80;78.17;102029.59;5061681;28;20462;-61
2022/06/11 02:35:14;;;;;;;;;;;;;;;15.80;78.62;102034.94;5066684;28;20016;-62
2022/06/11 02:37:42;;;;;;;;;;;;;;;15.79;78.47;102043.97;5062770;28;19924;-61
2022/06/11 02:40:11;;;;;;;;;;;;;;;15.77;78.46;102040.63;5058213;28;19924;-61
2022/06/11 02:42:36;;;;;;;;;;;;;;;15.74;78.04;102037.28;5065385;28;19928;-61
2022/06/11 02:45:02;;;;;;;;;;;;;;;15.71;78.23;102032.28;5062719;28;19924;-62
2022/06/11 02:47:27;;;;;;;;;;;;;;;15.70;77.91;102043.97;5048918;28;20007;-61
2022/06/11 02:49:54;;;;;;;;;;;;;;;15.70;78.06;102046.63;5063484;28;19974;-62
2022/06/11 02:52:21;;;;;;;;;;;;;;;15.68;78.07;102047.81;5061901;28;19924;-62
2022/06/11 02:54:47;;;;;;;;;;;;;;;15.67;78.25;102038.97;5062224;28;19924;-61
2022/06/11 02:57:14;;;;;;;;;;;;;;;15.67;78.67;102046.97;5060200;28;19928;-61
2022/06/11 02:59:39;;;;;;;;;;;;;;;15.66;78.61;102045.31;5057193;28;19964;-61
2022/06/11 03:02:05;;;;;;;;;;;;;;;15.65;78.51;102043.66;5059387;28;20410;-61
2022/06/11 03:04:31;;;;;;;;;;;;;;;15.63;77.99;102053.66;5048813;28;20341;-61
2022/06/11 03:06:56;;;;;;;;;;;;;;;15.64;78.24;102059.84;5053651;28;19956;-61
2022/06/11 03:09:25;;;;;;;;;;;;;;;15.63;78.23;102048.31;5061643;28;19928;-62
2022/06/11 03:11:51;;;;;;;;;;;;;;;15.65;77.77;102049.00;5062567;28;19978;-61
2022/06/11 03:14:16;;;;;;;;;;;;;;;15.65;77.91;102058.84;5063818;28;19920;-61
2022/06/11 03:16:43;;;;;;;;;;;;;;;15.63;78.57;102055.50;5065892;28;19958;-61
2022/06/11 03:19:09;;;;;;;;;;;;;;;15.61;78.30;102063.69;5045171;28;20610;-61
2022/06/11 03:21:34;;;;;;;;;;;;;;;15.58;78.16;102069.34;5059671;28;20026;-61
2022/06/11 03:24:00;;;;;;;;;;;;;;;15.55;78.58;102059.00;5060428;28;19925;-61
2022/06/11 03:26:25;;;;;;;;;;;;;;;15.54;78.47;102068.84;5064592;28;19924;-62
2022/06/11 03:28:51;;;;;;;;;;;;;;;15.56;78.37;102066.00;5062482;28;19955;-61
2022/06/11 03:31:16;;;;;;;;;;;;;;;15.56;78.46;102066.00;5066669;28;20035;-61
2022/06/11 03:33:42;;;;;;;;;;;;;;;15.56;78.94;102071.38;5062628;28;19935;-61
2022/06/11 03:36:09;;;;;;;;;;;;;;;15.57;79.78;102073.03;5061892;28;19932;-62
2022/06/11 03:38:35;;;;;;;;;;;;;;;15.58;79.07;102074.69;5059933;28;20025;-61
2022/06/11 03:41:00;;;;;;;;;;;;;;;15.61;78.67;102074.38;5060201;28;20075;-61
2022/06/11 03:43:26;;;;;;;;;;;;;;;15.62;78.68;102092.09;5052717;28;20298;-62
2022/06/11 03:45:52;;;;;;;;;;;;;;;15.63;78.94;102083.06;5071449;28;19926;-61
2022/06/11 03:48:17;;;;;;;;;;;;;;;15.65;79.15;102089.09;5041243;28;19925;-61
2022/06/11 03:50:43;;;;;;;;;;;;;;;15.65;78.84;102091.78;5062472;28;19928;-61
2022/06/11 03:53:09;;;;;;;;;;;;;;;15.66;78.75;102093.44;5061662;28;20015;-62
2022/06/11 03:55:34;;;;;;;;;;;;;;;15.67;79.00;102104.97;5063815;28;19978;-61
2022/06/11 03:58:00;;;;;;;;;;;;;;;15.68;79.17;102101.28;5060981;28;19928;-61
2022/06/11 04:03:13;;;;;;;;;;;;;;;15.70;78.88;102110.81;5059496;28;19946;-61
2022/06/11 04:05:39;;;;;;;;;;;;;;;15.71;78.73;102109.84;5045628;28;19925;-61
2022/06/11 04:08:05;;;;;;;;;;;;;;;15.70;79.31;102105.47;5058410;28;20343;-61
2022/06/11 04:10:31;;;;;;;;;;;;;;;15.74;78.86;102111.31;5056939;28;19931;-62
2022/06/11 04:12:57;;;;;;;;;;;;;;;15.74;79.00;102104.13;5054761;28;19936;-62
2022/06/11 04:15:22;;;;;;;;;;;;;;;15.78;79.04;102118.03;5054928;28;19925;-61
2022/06/11 04:17:47;;;;;;;;;;;;;;;15.78;79.63;102111.84;5054061;28;19995;-61
2022/06/11 04:20:13;;;;;;;;;;;;;;;15.78;78.85;102117.19;5060548;28;20019;-63
2022/06/11 04:22:39;;;;;;;;;;;;;;;15.80;79.57;102123.22;5060543;28;19947;-66
2022/06/11 04:25:05;;;;;;;;;;;;;;;15.80;79.28;102115.19;5057154;28;19925;-62
2022/06/11 04:27:31;;;;;;;;;;;;;;;15.80;79.56;102125.88;5053071;28;19929;-63
2022/06/11 04:29:58;;;;;;;;;;;;;;;15.79;79.30;102125.03;5055091;28;19932;-64
2022/06/11 04:32:24;;;;;;;;;;;;;;;15.80;79.40;102125.88;5055608;28;20272;-62
2022/06/11 04:34:50;;;;;;;;;;;;;;;15.82;79.14;102129.22;5060010;28;19935;-61
2022/06/11 04:37:17;;;;;;;;;;;;;;;15.84;78.99;102125.38;5055793;28;19924;-61
2022/06/11 04:39:43;;;;;;;;;;;;;;;15.82;79.42;102134.56;5042188;28;20401;-62
2022/06/11 04:42:12;;;;;;;;;;;;;;;15.84;79.65;102133.41;5062261;28;19920;-60
2022/06/11 04:44:38;;;;;;;;;;;;;;;15.86;79.69;102130.56;5062275;28;20117;-61
2022/06/11 04:47:04;;;;;;;;;;;;;;;15.89;79.54;102130.22;5060303;28;20469;-62
2022/06/11 04:49:29;;;;;;;;;;;;;;;15.91;79.33;102132.75;5063264;28;19969;-61
2022/06/11 04:51:54;;;;;;;;;;;;;;;15.92;79.52;102129.94;5062577;28;19978;-61
2022/06/11 04:54:19;;;;;;;;;;;;;;;15.93;79.40;102136.97;5061368;28;19920;-62
2022/06/11 04:56:45;;;;;;;;;;;;;;;15.92;79.49;102135.28;5069373;28;19962;-61
2022/06/11 04:59:10;;;;;;;;;;;;;;;15.92;79.55;102140.66;5066407;28;19929;-61
2022/06/11 05:01:37;;;;;;;;;;;;;;;15.92;79.42;102137.97;5044589;28;19924;-62
2022/06/11 05:04:02;;;;;;;;;;;;;;;15.93;80.05;102131.59;5064345;28;20011;-61
2022/06/11 05:06:29;;;;;;;;;;;;;;;15.95;79.69;102140.31;5065963;28;20082;-61
2022/06/11 05:08:55;;;;;;;;;;;;;;;15.98;79.04;102137.31;5065137;28;19981;-61
2022/06/11 05:11:20;;;;;;;;;;;;;;;16.02;79.08;102139.66;5062335;28;19924;-61
2022/06/11 05:13:45;;;;;;;;;;;;;;;16.04;79.08;102141.13;5063379;28;19974;-61
2022/06/11 05:16:14;;;;;;;;;;;;;;;16.07;78.91;102148.84;5069951;28;19939;-61
2022/06/11 05:18:39;;;;;;;;;;;;;;;16.06;78.95;102149.84;5063573;28;20387;-61
2022/06/11 05:21:04;;;;;;;;;;;;;;;16.05;79.16;102150.00;5071123;28;19928;-61
2022/06/11 05:23:29;;;;;;;;;;;;;;;16.03;78.89;102141.34;5068686;28;20015;-61
2022/06/11 05:25:55;;;;;;;;;;;;;;;16.05;78.87;102144.66;5067421;28;20074;-61
2022/06/11 05:28:23;;;;;;;;;;;;;;;16.07;78.77;102148.00;5062705;28;19936;-62
2022/06/11 05:30:48;;;;;;;;;;;;;;;16.07;78.62;102148.84;5056038;28;20030;-62
2022/06/11 05:33:14;;;;;;;;;;;;;;;16.09;78.58;102151.38;5061117;28;20377;-63
2022/06/11 05:35:40;;;;;;;;;;;;;;;16.14;78.32;102154.38;5042991;28;19956;-62
2022/06/11 05:38:08;;;;;;;;;;;;;;;16.17;77.89;102148.69;5061812;28;19946;-63
2022/06/11 05:40:35;;;;;;;;;;;;;;;16.20;77.65;102148.38;5066970;28;20395;-61
2022/06/11 05:43:01;;;;;;;;;;;;;;;16.18;77.08;102155.69;5067359;28;20362;-62
2022/06/11 05:45:35;;;;;;;;;;;;;;;16.22;77.07;102157.06;5066765;28;19928;-62
2022/06/11 05:48:01;;;;;;;;;;;;;;;16.24;76.55;102152.38;5065298;28;19935;-61
2022/06/11 05:50:29;;;;;;;;;;;;;;;16.35;76.15;102150.38;5071740;28;20019;-62
2022/06/11 05:52:55;;;;;;;;;;;;;;;16.37;75.71;102148.34;5069676;28;20050;-62
2022/06/11 05:55:22;;;;;;;;;;;;;;;16.34;75.17;102154.03;5067110;28;21841;-62
2022/06/11 05:57:50;;;;;;;;;;;;;;;16.43;75.55;102152.22;5066469;28;19932;-62
2022/06/11 06:00:17;;;;;;;;;;;;;;;16.48;75.40;102164.06;5070033;28;19971;-62
2022/06/11 06:02:44;;;;;;;;;;;;;;;16.48;75.36;102157.91;5065752;28;20272;-62
2022/06/11 06:05:11;;;;;;;;;;;;;;;16.58;75.16;102155.84;5061585;28;19924;-62
2022/06/11 06:07:36;;;;;;;;;;;;;;;16.61;70.59;102154.69;5068041;28;19924;-62
2022/06/11 06:10:02;;;;;;;;;;;;;;;16.62;74.07;102156.38;5063095;28;20321;-62
2022/06/11 06:12:31;;;;;;;;;;;;;;;16.67;73.10;102165.56;5069346;28;20330;-61
2022/06/11 06:15:04;;;;;;;;;;;;;;;16.62;73.64;102157.19;5050384;28;19920;-62
2022/06/11 06:17:29;;;;;;;;;;;;;;;16.64;73.28;102167.75;5069417;28;20309;-62
2022/06/11 06:19:54;;;;;;;;;;;;;;;16.67;72.23;102162.03;5069557;28;19928;-62
2022/06/11 06:22:19;;;;;;;;;;;;;;;16.62;72.71;102164.41;5065360;28;19931;-62
2022/06/11 06:24:47;;;;;;;;;;;;;;;16.63;72.97;102166.09;5049968;28;19931;-62
2022/06/11 06:27:12;;;;;;;;;;;;;;;16.75;72.92;102172.75;5057599;28;20351;-62
2022/06/11 06:29:37;;;;;;;;;;;;;;;16.78;72.14;102171.59;5065810;28;19924;-62
2022/06/11 06:32:03;;;;;;;;;;;;;;;16.82;71.67;102172.88;5059506;28;19924;-62
2022/06/11 06:34:28;;;;;;;;;;;;;;;16.91;71.09;102176.38;5039471;28;19958;-62
2022/06/11 06:36:53;;;;;;;;;;;;;;;16.99;70.78;102176.38;5060958;28;19929;-62
2022/06/11 06:39:18;;;;;;;;;;;;;;;17.09;69.19;102176.22;5059931;28;19928;-62
2022/06/11 06:41:43;;;;;;;;;;;;;;;16.96;70.11;102183.94;5060035;28;19928;-62
2022/06/11 06:44:09;;;;;;;;;;;;;;;17.08;69.18;102194.13;5060144;28;20461;-61
2022/06/11 06:46:34;;;;;;;;;;;;;;;17.03;69.06;102191.13;5039446;28;20115;-63
2022/06/11 06:48:59;;;;;;;;;;;;;;;16.97;69.68;102197.13;5058663;28;19924;-62
2022/06/11 06:51:24;;;;;;;;;;;;;;;16.93;69.86;102190.47;5063353;28;20019;-62
2022/06/11 06:53:49;;;;;;;;;;;;;;;16.92;69.58;102191.44;5061033;28;19924;-63
2022/06/11 06:56:15;;;;;;;;;;;;;;;16.91;68.63;102187.09;5040119;28;19924;-62
2022/06/11 06:58:40;;;;;;;;;;;;;;;16.83;69.18;102187.13;5058029;28;19931;-63
2022/06/11 07:01:06;;;;;;;;;;;;;;;16.77;69.92;102188.63;5053567;28;19925;-63
2022/06/11 07:03:31;;;;;;;;;;;;;;;16.93;69.78;102185.94;5061267;28;19921;-63
2022/06/11 07:05:56;;;;;;;;;;;;;;;16.90;69.85;102188.13;5060931;28;19949;-61
2022/06/11 07:08:22;;;;;;;;;;;;;;;16.96;69.62;102187.44;5063635;28;19920;-62
2022/06/11 07:10:48;;;;;;;;;;;;;;;17.13;70.09;102179.38;5050920;28;20047;-62
2022/06/11 07:13:14;;;;;;;;;;;;;;;17.39;68.93;102175.59;5060937;28;19932;-63
2022/06/11 07:15:40;;;;;;;;;;;;;;;17.41;69.79;102170.91;5059261;28;19924;-63
2022/06/11 07:18:14;;;;;;;;;;;;;;;17.44;69.46;102178.59;5061919;28;20317;-60
2022/06/11 07:20:40;;;;;;;;;;;;;;;17.48;68.95;102171.88;5062262;28;19924;-61
2022/06/11 07:23:09;;;;;;;;;;;;;;;17.47;69.25;102180.94;5053064;28;20405;-61
2022/06/11 07:25:37;;;;;;;;;;;;;;;17.58;69.06;102177.84;5058610;28;19964;-61
2022/06/11 07:28:06;;;;;;;;;;;;;;;17.77;68.64;102174.91;5062215;28;19935;-61
2022/06/11 07:30:34;;;;;;;;;;;;;;;17.86;67.85;102185.41;5061735;28;19925;-64
2022/06/11 07:33:06;;;;;;;;;;;;;;;17.91;68.34;102181.38;5063127;28;19925;-61
2022/06/11 07:35:34;;;;;;;;;;;;;;;17.97;68.67;102186.84;5062991;28;20026;-62
2022/06/11 07:37:59;;;;;;;;;;;;;;;18.07;68.26;102191.19;5060046;28;19931;-62
2022/06/11 07:40:24;;;;;;;;;;;;;;;18.12;67.23;102197.66;5061066;28;19924;-62
2022/06/11 07:42:50;;;;;;;;;;;;;;;17.93;67.96;102192.75;5061237;28;20303;-61
2022/06/11 07:45:15;;;;;;;;;;;;;;;17.86;68.36;102195.31;5059434;28;19928;-60
2022/06/11 07:47:56;;;;;;;;;;;;;;;17.83;68.73;102193.84;5059626;28;19936;-62
2022/06/11 07:50:24;;;;;;;;;;;;;;;17.85;68.70;102196.31;5058269;28;19924;-61
2022/06/11 07:52:49;;;;;;;;;;;;;;;17.94;69.32;102191.72;5051557;28;20299;-61
2022/06/11 07:55:15;;;;;;;;;;;;;;;18.07;68.56;102192.03;5062067;28;19928;-61
2022/06/11 07:57:40;;;;;;;;;;;;;;;18.11;68.05;102187.13;5042974;28;19930;-62
2022/06/11 08:00:08;;;;;;;;;;;;;;;18.11;68.38;102177.22;5053508;28;19925;-62
2022/06/11 08:02:33;;;;;;;;;;;;;;;18.19;67.74;102189.75;5055939;28;19946;-61
2022/06/11 08:04:59;;;;;;;;;;;;;;;18.13;68.05;102185.94;5060726;28;20393;-62
2022/06/11 08:07:25;;;;;;;;;;;;;;;18.20;68.05;102196.78;5059102;28;19989;-62
2022/06/11 08:09:50;;;;;;;;;;;;;;;18.34;67.66;102203.22;5056563;28;19947;-62
2022/06/11 08:12:15;;;;;;;;;;;;;;;18.41;67.59;102208.72;5051958;28;20469;-62
2022/06/11 08:14:40;;;;;;;;;;;;;;;18.54;67.11;102208.09;5056373;28;19924;-63
2022/06/11 08:17:06;;;;;;;;;;;;;;;18.66;66.95;102217.38;5056284;28;20383;-64
2022/06/11 08:19:31;;;;;;;;;;;;;;;18.76;65.86;102219.00;5050213;28;19974;-64
2022/06/11 08:21:56;;;;;;;;;;;;;;;18.68;66.96;102211.84;5057315;28;19929;-64
2022/06/11 08:24:22;;;;;;;;;;;;;;;18.79;66.55;102210.56;5058448;28;20063;-63
2022/06/11 08:26:49;;;;;;;;;;;;;;;18.85;66.50;102220.56;5057207;28;20304;-64
2022/06/11 08:29:14;;;;;;;;;;;;;;;18.79;65.97;102210.56;5049084;28;20023;-63
2022/06/11 08:31:40;;;;;;;;;;;;;;;18.71;65.68;102213.31;5061525;28;19943;-64
2022/06/11 08:34:05;;;;;;;;;;;;;;;18.71;66.69;102216.00;5059659;28;19974;-65
2022/06/11 08:36:30;;;;;;;;;;;;;;;18.88;66.53;102220.22;5060274;28;20011;-60
2022/06/11 08:38:56;;;;;;;;;;;;;;;19.06;65.42;102216.38;5059970;28;19935;-60
2022/06/11 08:41:24;;;;;;;;;;;;;;;19.24;65.82;102218.69;5049579;28;20410;-62
2022/06/11 08:43:55;;;;;;;;;;;;;;;19.43;65.17;102214.59;5059988;28;20397;-62
2022/06/11 08:46:24;;;;;;;;;;;;;;;19.40;64.82;102222.19;5051688;28;19925;-62
2022/06/11 08:49:04;;;;;;;;;;;;;;;19.40;63.83;102225.75;5055039;28;19921;-61
2022/06/11 08:51:35;;;;;;;;;;;;;;;19.24;63.63;102223.22;5050462;28;19925;-62
2022/06/11 08:54:03;;;;;;;;;;;;;;;19.10;64.80;102225.75;5059667;28;19931;-62
2022/06/11 08:56:32;;;;;;;;;;;;;;;19.03;65.67;102217.56;5059321;28;19946;-61
2022/06/11 08:59:20;;;;;;;;;;;;;;;19.09;65.71;102218.66;5056070;28;19960;-62
2022/06/11 09:01:48;;;;;;;;;;;;;;;19.16;65.45;102222.31;5055897;28;20417;-62
2022/06/11 09:04:19;;;;;;;;;;;;;;;19.30;64.78;102223.31;5060310;28;20275;-61
2022/06/11 09:07:04;;;;;;;;;;;;;;;19.26;64.81;102221.19;5060521;28;19925;-63
2022/06/11 09:09:41;;;;;;;;;;;;;;;19.22;64.75;102221.56;5060074;28;19943;-62
2022/06/11 09:12:25;;;;;;;;;;;;;;;19.26;63.70;102223.88;5048956;28;19925;-62
2022/06/11 09:14:59;;;;;;;;;;;;;;;19.19;63.90;102223.81;5054398;28;19921;-62
2022/06/11 09:17:37;;;;;;;;;;;;;;;19.13;64.02;102221.84;5060232;28;19921;-62
2022/06/11 09:20:09;;;;;;;;;;;;;;;19.13;64.64;102217.28;5051742;28;20436;-62
2022/06/11 09:22:40;;;;;;;;;;;;;;;19.14;64.54;102218.13;5053535;28;19964;-62
2022/06/11 09:25:20;;;;;;;;;;;;;;;19.16;64.65;102219.63;5059383;28;19920;-63
2022/06/11 09:27:48;;;;;;;;;;;;;;;19.28;63.49;102224.53;5060281;28;19991;-62
2022/06/11 09:30:16;;;;;;;;;;;;;;;19.29;64.25;102215.44;5060011;28;19969;-62
2022/06/11 09:32:53;;;;;;;;;;;;;;;19.36;64.06;102227.13;5053345;28;19931;-62
2022/06/11 09:35:26;;;;;;;;;;;;;;;19.42;62.76;102220.16;5052190;28;19928;-62
2022/06/11 09:38:02;;;;;;;;;;;;;;;19.54;63.24;102218.66;5061094;28;20003;-61
2022/06/11 09:40:34;;;;;;;;;;;;;;;19.71;63.40;102221.97;5058036;28;19920;-57
2022/06/11 09:43:08;;;;;;;;;;;;;;;19.89;62.92;102215.34;5042478;28;19931;-58
2022/06/11 09:45:36;;;;;;;;;;;;;;;20.05;62.50;102219.69;5055392;28;19924;-57
2022/06/11 09:48:14;;;;;;;;;;;;;;;20.20;61.91;102211.53;5056281;28;19928;-58
2022/06/11 09:50:42;;;;;;;;;;;;;;;20.29;60.56;102213.06;5057682;28;19971;-58
2022/06/11 09:53:33;;;;;;;;;;;;;;;20.37;60.71;102214.78;5037905;28;20287;-55
2022/06/11 09:56:01;;;;;;;;;;;;;;;20.66;58.92;102217.50;5054408;28;20414;-59
2022/06/11 09:58:43;;;;;;;;;;;;;;;20.72;56.75;102214.03;5048407;28;20031;-58
2022/06/11 10:01:16;;;;;;;;;;;;;;;20.72;56.15;102214.03;5052008;28;19924;-60
2022/06/11 10:03:47;;;;;;;;;;;;;;;20.75;54.82;102213.66;5062321;28;20034;-57
2022/06/11 10:06:16;;;;;;;;;;;;;;;20.66;55.10;102215.66;5064941;28;20380;-58
2022/06/11 10:08:49;;;;;;;;;;;;;;;20.78;56.54;102218.63;5055990;28;20359;-57
2022/06/11 10:11:34;;;;;;;;;;;;;;;20.95;56.33;102218.38;5065704;28;19924;-58
2022/06/11 10:14:28;;;;;;;;;;;;;;;21.05;54.00;102213.47;5055352;28;19943;-61
2022/06/11 10:16:59;;;;;;;;;;;;;;;20.99;57.38;102214.25;5064302;28;19924;-62
2022/06/11 10:19:28;;;;;;;;;;;;;;;21.08;56.43;102220.31;5063138;28;19985;-62
2022/06/11 10:22:02;;;;;;;;;;;;;;;21.07;56.15;102211.38;5065872;28;20294;-63
2022/06/11 10:24:30;;;;;;;;;;;;;;;21.14;55.74;102221.38;5066442;28;19996;-62
2022/06/11 10:27:00;;;;;;;;;;;;;;;21.30;53.96;102214.81;5060811;28;19928;-61
2022/06/11 10:29:33;;;;;;;;;;;;;;;21.46;52.02;102224.47;5038749;28;19935;-61
2022/06/11 10:32:07;;;;;;;;;;;;;;;21.29;54.17;102219.41;5055674;28;19963;-62
2022/06/11 10:34:34;;;;;;;;;;;;;;;21.35;53.45;102224.00;5062471;28;20566;-63
2022/06/11 10:37:09;;;;;;;;;;;;;;;21.32;54.58;102227.06;5063897;28;19970;-62
2022/06/11 10:39:40;;;;;;;;;;;;;;;21.49;53.47;102227.59;5065316;28;20859;-62
2022/06/11 10:42:11;;;;;;;;;;;;;;;21.49;53.47;102229.44;5063854;28;19932;-62
2022/06/11 10:44:41;;;;;;;;;;;;;;;21.67;53.68;102219.97;5056262;28;19932;-62
2022/06/11 10:47:18;;;;;;;;;;;;;;;21.60;52.44;102215.38;5060247;28;19924;-63
2022/06/11 10:49:49;;;;;;;;;;;;;;;21.56;53.00;102224.91;5057334;28;20448;-62
2022/06/11 10:52:35;;;;;;;;;;;;;;;21.68;53.36;102227.88;5063131;28;19928;-62
2022/06/11 10:55:00;;;;;;;;;;;;;;;21.74;52.43;102221.69;5057256;28;19979;-63
2022/06/11 10:57:27;;;;;;;;;;;;;;;21.78;52.77;102224.81;5064129;28;19968;-61
2022/06/11 11:00:01;;;;;;;;;;;;;;;21.78;53.54;102216.72;5062468;28;19947;-63
2022/06/11 11:02:31;;;;;;;;;;;;;;;21.85;54.11;102217.56;5062175;28;19934;-61
2022/06/11 11:05:01;;;;;;;;;;;;;;;21.95;52.80;102221.75;5055871;28;19920;-61
2022/06/11 11:07:39;;;;;;;;;;;;;;;22.02;52.77;102211.78;5055033;28;20781;-61
2022/06/11 11:10:17;;;;;;;;;;;;;;;22.05;50.56;102203.25;5065022;28;20019;-64
2022/06/11 11:12:42;;;;;;;;;;;;;;;21.98;53.36;102205.97;5063350;28;20386;-64
2022/06/11 11:15:10;;;;;;;;;;;;;;;22.10;52.72;102208.88;5061788;28;19974;-61
2022/06/11 11:17:43;;;;;;;;;;;;;;;22.14;52.57;102199.31;5054480;28;19962;-61
2022/06/11 11:20:30;;;;;;;;;;;;;;;22.15;53.04;102198.28;5063483;28;20007;-62
2022/06/11 11:22:57;;;;;;;;;;;;;;;22.32;52.30;102200.59;5065155;28;20011;-61
2022/06/11 11:25:28;;;;;;;;;;;;;;;22.38;52.44;102199.75;5065405;28;19926;-62
2022/06/11 11:27:53;;;;;;;;;;;;;;;22.48;52.92;102193.09;5048580;28;19921;-62
2022/06/11 11:30:33;;;;;;;;;;;;;;;22.56;52.00;102201.03;5047023;28;19928;-61
2022/06/11 11:33:11;;;;;;;;;;;;;;;22.53;52.11;102196.03;5065091;28;19920;-60
2022/06/11 11:35:38;;;;;;;;;;;;;;;22.60;50.18;102196.88;5064808;28;19921;-62
2022/06/11 11:38:06;;;;;;;;;;;;;;;22.48;51.04;102193.94;5064788;28;19924;-60
2022/06/11 11:40:34;;;;;;;;;;;;;;;22.39;51.58;102189.75;5065028;28;19927;-63
2022/06/11 11:43:04;;;;;;;;;;;;;;;22.42;51.73;102194.75;5064968;28;19917;-61
2022/06/11 11:45:40;;;;;;;;;;;;;;;22.74;50.09;102191.44;5064418;28;19920;-61
2022/06/11 11:48:06;;;;;;;;;;;;;;;22.62;52.19;102189.38;5045690;28;19929;-60
2022/06/11 11:50:35;;;;;;;;;;;;;;;22.76;51.27;102183.94;5062039;28;19920;-62
2022/06/11 11:53:05;;;;;;;;;;;;;;;22.91;50.31;102192.66;5064496;28;19924;-61
2022/06/11 11:55:30;;;;;;;;;;;;;;;22.75;50.60;102193.09;5064949;28;20405;-63
2022/06/11 11:57:59;;;;;;;;;;;;;;;22.61;50.91;102182.31;5065146;28;19920;-61
2022/06/11 12:00:24;;;;;;;;;;;;;;;22.73;50.58;102189.78;5048924;28;19962;-62
2022/06/11 12:02:52;;;;;;;;;;;;;;;22.65;50.78;102183.53;5064824;28;19971;-61
2022/06/11 12:05:20;;;;;;;;;;;;;;;22.51;51.52;102189.97;5062817;28;19947;-62
2022/06/11 12:07:47;;;;;;;;;;;;;;;22.68;51.51;102183.13;5053781;28;19929;-61
2022/06/11 12:10:14;;;;;;;;;;;;;;;22.67;52.00;102176.06;5050897;28;19924;-62
2022/06/11 12:12:41;;;;;;;;;;;;;;;22.73;52.06;102174.38;5062592;28;20023;-62
2022/06/11 12:15:18;;;;;;;;;;;;;;;23.01;50.74;102180.56;5058335;28;19927;-61
2022/06/11 12:17:46;;;;;;;;;;;;;;;22.93;50.84;102178.91;5054133;28;20028;-62
2022/06/11 12:20:15;;;;;;;;;;;;;;;22.90;51.06;102184.75;5063260;28;19974;-62
2022/06/11 12:22:44;;;;;;;;;;;;;;;22.78;51.12;102181.84;5063729;28;19920;-61
2022/06/11 12:25:19;;;;;;;;;;;;;;;22.68;52.01;102183.13;5063134;28;19950;-62
2022/06/11 12:27:45;;;;;;;;;;;;;;;22.65;51.46;102175.44;5062293;28;19939;-63
2022/06/11 12:30:16;;;;;;;;;;;;;;;22.70;51.95;102169.41;5063486;28;19920;-63
2022/06/11 12:32:41;;;;;;;;;;;;;;;22.75;52.33;102171.47;5063433;28;19924;-61
2022/06/11 12:35:13;;;;;;;;;;;;;;;22.82;52.02;102172.28;5067541;28;19926;-62
2022/06/11 12:37:44;;;;;;;;;;;;;;;23.07;51.59;102174.28;5070491;28;20425;-62
2022/06/11 12:40:21;;;;;;;;;;;;;;;23.28;51.17;102175.06;5066475;28;20351;-62
2022/06/11 12:42:58;;;;;;;;;;;;;;;23.32;50.81;102171.75;5063754;28;20335;-64
2022/06/11 12:45:44;;;;;;;;;;;;;;;23.19;50.94;102178.00;5064905;28;19924;-61
2022/06/11 12:48:15;;;;;;;;;;;;;;;22.95;51.18;102180.34;5063085;28;19935;-61